Time;durP1;ratioP1;P1;durP2;ratioP2;P2;SDS_P1;SDS_P2;PMS_P1;PMS_P2;Temp;Humidity;BMP_temperature;BMP_pressure;BME280_temperature;BME280_humidity;BME280_pressure;Samples;Min_cycle;Max_cycle;Signal;HPM_P1;HPM_P2
2022/03/26 00:01:20;;;;;;;;;;;7.90;52.80;;;;;;5054792;28;19923;-82
2022/03/26 00:03:46;;;;;;;;;;;7.90;52.70;;;;;;5048285;28;19917;-82
2022/03/26 00:06:12;;;;;;;;;;;7.90;52.70;;;;;;5046660;28;19917;-82
2022/03/26 00:08:37;;;;;;;;;;;7.90;52.50;;;;;;5054819;28;20397;-82
2022/03/26 00:11:03;;;;;;;;;;;7.80;52.60;;;;;;5075206;28;19912;-82
2022/03/26 00:13:28;;;;;;;;;;;7.80;52.60;;;;;;5057002;28;20015;-82
2022/03/26 00:15:54;;;;;;;;;;;7.70;52.80;;;;;;5053289;28;20406;-82
2022/03/26 00:18:20;;;;;;;;;;;7.60;53.30;;;;;;5048885;28;19917;-82
2022/03/26 00:20:46;;;;;;;;;;;7.60;53.90;;;;;;5061821;28;19935;-82
2022/03/26 00:23:12;;;;;;;;;;;7.50;54.10;;;;;;5074242;28;19913;-82
2022/03/26 00:25:37;;;;;;;;;;;7.40;54.10;;;;;;5073027;28;19918;-81
2022/03/26 00:28:03;;;;;;;;;;;7.40;54.50;;;;;;5044731;28;19924;-82
2022/03/26 00:30:28;;;;;;;;;;;7.30;54.60;;;;;;5043099;28;19921;-82
2022/03/26 00:32:54;;;;;;;;;;;7.30;54.60;;;;;;5051337;28;19960;-82
2022/03/26 00:35:20;;;;;;;;;;;7.20;55.00;;;;;;5071143;28;19920;-82
2022/03/26 00:37:45;;;;;;;;;;;7.20;55.40;;;;;;5046197;28;19917;-82
2022/03/26 00:40:11;;;;;;;;;;;7.10;55.40;;;;;;5041955;28;19920;-82
2022/03/26 00:42:37;;;;;;;;;;;7.10;55.50;;;;;;5040345;28;19923;-82
2022/03/26 00:45:03;;;;;;;;;;;7.10;55.50;;;;;;5066924;28;19920;-81
2022/03/26 00:47:29;;;;;;;;;;;7.10;55.30;;;;;;5069784;22;19937;-81
2022/03/26 00:49:54;;;;;;;;;;;7.10;55.40;;;;;;5037215;28;20027;-81
2022/03/26 00:52:20;;;;;;;;;;;7.10;55.40;;;;;;5038043;28;19963;-81
2022/03/26 00:54:46;;;;;;;;;;;7.10;55.40;;;;;;5020866;28;19927;-81
2022/03/26 00:57:11;;;;;;;;;;;7.10;55.40;;;;;;5025481;28;19917;-81
2022/03/26 00:59:37;;;;;;;;;;;7.10;55.30;;;;;;5046444;28;19913;-81
2022/03/26 01:02:02;;;;;;;;;;;7.00;55.30;;;;;;5044196;28;19912;-81
2022/03/26 01:04:28;;;;;;;;;;;7.00;55.30;;;;;;5023212;28;20019;-81
2022/03/26 01:06:53;;;;;;;;;;;7.00;55.70;;;;;;5036582;28;19921;-81
2022/03/26 01:09:19;;;;;;;;;;;7.00;55.50;;;;;;5041161;28;19920;-81
2022/03/26 01:11:44;;;;;;;;;;;7.00;55.40;;;;;;5019821;28;20292;-81
2022/03/26 01:14:10;;;;;;;;;;;7.00;55.50;;;;;;5018908;28;19979;-81
2022/03/26 01:16:35;;;;;;;;;;;7.00;55.50;;;;;;5039103;28;19966;-81
2022/03/26 01:19:01;;;;;;;;;;;7.00;55.60;;;;;;5031259;28;19917;-81
2022/03/26 01:21:27;;;;;;;;;;;6.90;55.80;;;;;;5028976;28;20295;-80
2022/03/26 01:23:52;;;;;;;;;;;6.90;55.70;;;;;;5022882;28;19921;-80
2022/03/26 01:26:18;;;;;;;;;;;6.90;55.60;;;;;;5021027;28;20383;-81
2022/03/26 01:28:44;;;;;;;;;;;6.80;55.60;;;;;;5038824;28;19920;-81
2022/03/26 01:31:10;;;;;;;;;;;6.80;55.60;;;;;;5038700;28;19917;-81
2022/03/26 01:33:36;;;;;;;;;;;6.80;55.50;;;;;;5041626;28;19917;-80
2022/03/26 01:36:02;;;;;;;;;;;6.80;55.50;;;;;;5047114;28;19974;-81
2022/03/26 01:38:28;;;;;;;;;;;6.80;55.50;;;;;;5036587;28;19917;-80
2022/03/26 01:40:54;;;;;;;;;;;6.80;55.50;;;;;;5022592;28;19939;-81
2022/03/26 01:43:19;;;;;;;;;;;6.70;55.70;;;;;;5030794;28;19961;-80
2022/03/26 01:45:45;;;;;;;;;;;6.70;56.10;;;;;;5036139;28;19963;-81
2022/03/26 01:48:10;;;;;;;;;;;6.60;56.70;;;;;;5046393;28;19923;-81
2022/03/26 01:50:36;;;;;;;;;;;6.50;57.10;;;;;;5027620;28;20019;-80
2022/03/26 01:53:03;;;;;;;;;;;6.50;56.80;;;;;;5024161;28;19927;-81
2022/03/26 01:55:28;;;;;;;;;;;6.40;57.40;;;;;;5024607;28;19943;-81
2022/03/26 01:57:54;;;;;;;;;;;6.40;58.00;;;;;;5025252;28;20427;-81
2022/03/26 02:00:20;;;;;;;;;;;6.30;57.90;;;;;;5039184;28;19917;-81
2022/03/26 02:02:45;;;;;;;;;;;6.20;58.40;;;;;;5017775;28;19960;-80
2022/03/26 02:05:15;;;;;;;;;;;6.20;58.70;;;;;;5017380;28;20391;-81
2022/03/26 02:07:42;;;;;;;;;;;6.10;58.80;;;;;;5034652;28;19913;-80
2022/03/26 02:10:09;;;;;;;;;;;6.10;58.90;;;;;;5033014;28;20135;-81
2022/03/26 02:12:34;;;;;;;;;;;6.00;59.10;;;;;;5033127;28;20425;-81
2022/03/26 02:15:00;;;;;;;;;;;5.90;59.60;;;;;;5036626;28;19916;-80
2022/03/26 02:17:26;;;;;;;;;;;5.90;59.90;;;;;;5038435;28;19916;-81
2022/03/26 02:19:51;;;;;;;;;;;5.80;59.80;;;;;;5023892;28;19917;-80
2022/03/26 02:22:17;;;;;;;;;;;5.80;60.70;;;;;;5045766;28;20011;-80
2022/03/26 02:24:43;;;;;;;;;;;5.70;61.40;;;;;;5048750;28;19912;-81
2022/03/26 02:27:08;;;;;;;;;;;5.70;61.50;;;;;;5023283;28;19927;-81
2022/03/26 02:29:34;;;;;;;;;;;5.60;61.40;;;;;;5022066;28;19967;-81
2022/03/26 02:32:00;;;;;;;;;;;5.60;61.60;;;;;;5021737;28;19921;-80
2022/03/26 02:34:26;;;;;;;;;;;5.50;61.40;;;;;;5041156;28;19917;-80
2022/03/26 02:36:55;;;;;;;;;;;5.40;61.20;;;;;;5037266;28;20372;-80
2022/03/26 02:39:20;;;;;;;;;;;5.40;61.80;;;;;;5037470;28;19921;-80
2022/03/26 02:41:46;;;;;;;;;;;5.30;63.10;;;;;;5040334;28;19920;-81
2022/03/26 02:44:11;;;;;;;;;;;5.20;63.00;;;;;;5031522;28;19936;-81
2022/03/26 02:46:37;;;;;;;;;;;5.20;63.60;;;;;;5029636;28;19917;-81
2022/03/26 02:49:03;;;;;;;;;;;5.10;63.80;;;;;;5040406;28;19921;-81
2022/03/26 02:51:28;;;;;;;;;;;5.10;64.00;;;;;;5037847;28;20389;-81
2022/03/26 02:53:54;;;;;;;;;;;5.10;64.50;;;;;;5017875;28;20015;-81
2022/03/26 02:56:19;;;;;;;;;;;5.10;66.00;;;;;;5027041;28;19917;-80
2022/03/26 02:58:46;;;;;;;;;;;5.00;66.40;;;;;;5016786;28;19940;-80
2022/03/26 03:01:13;;;;;;;;;;;5.00;67.20;;;;;;5017655;28;20058;-81
2022/03/26 03:03:38;;;;;;;;;;;5.00;67.70;;;;;;5035140;28;20385;-81
2022/03/26 03:06:04;;;;;;;;;;;5.00;68.10;;;;;;5030457;28;20028;-81
2022/03/26 03:08:30;;;;;;;;;;;4.90;68.10;;;;;;5041783;28;19996;-80
2022/03/26 03:10:55;;;;;;;;;;;4.90;68.80;;;;;;5022763;28;19917;-80
2022/03/26 03:13:22;;;;;;;;;;;4.90;69.50;;;;;;5020052;28;19925;-81
2022/03/26 03:15:50;;;;;;;;;;;4.80;69.60;;;;;;5029021;28;19917;-81
2022/03/26 03:18:16;;;;;;;;;;;4.80;69.90;;;;;;5043481;28;20319;-80
2022/03/26 03:20:42;;;;;;;;;;;4.80;69.70;;;;;;5037018;28;19966;-81
2022/03/26 03:23:07;;;;;;;;;;;4.80;69.30;;;;;;5021198;28;20392;-80
2022/03/26 03:25:33;;;;;;;;;;;4.80;69.80;;;;;;5013246;28;19917;-81
2022/03/26 03:27:59;;;;;;;;;;;4.80;71.10;;;;;;5043324;28;20367;-80
2022/03/26 03:30:25;;;;;;;;;;;4.70;71.50;;;;;;5044481;28;19920;-81
2022/03/26 03:32:51;;;;;;;;;;;4.70;71.70;;;;;;5020407;28;19924;-81
2022/03/26 03:35:17;;;;;;;;;;;4.70;71.80;;;;;;5043263;28;19921;-80
2022/03/26 03:37:42;;;;;;;;;;;4.70;72.00;;;;;;5036246;28;19917;-81
2022/03/26 03:40:08;;;;;;;;;;;4.70;72.60;;;;;;5039691;28;19928;-81
2022/03/26 03:42:34;;;;;;;;;;;4.70;72.30;;;;;;5038768;28;19913;-80
2022/03/26 03:44:59;;;;;;;;;;;4.70;71.90;;;;;;5029349;28;19963;-81
2022/03/26 03:47:25;;;;;;;;;;;4.70;72.80;;;;;;5040086;28;19923;-81
2022/03/26 03:49:51;;;;;;;;;;;4.70;72.30;;;;;;5019394;28;19921;-81
2022/03/26 03:52:17;;;;;;;;;;;4.60;71.60;;;;;;5042074;28;19913;-81
2022/03/26 03:54:43;;;;;;;;;;;4.60;71.90;;;;;;5043366;28;19925;-81
2022/03/26 03:57:08;;;;;;;;;;;4.50;72.20;;;;;;5045849;28;19924;-81
2022/03/26 03:59:34;;;;;;;;;;;4.50;72.80;;;;;;5049224;28;19912;-80
2022/03/26 04:01:59;;;;;;;;;;;4.40;73.40;;;;;;5028694;28;19960;-81
2022/03/26 04:04:25;;;;;;;;;;;4.30;73.00;;;;;;5019128;28;20015;-81
2022/03/26 04:06:51;;;;;;;;;;;4.30;73.60;;;;;;5048902;28;19921;-81
2022/03/26 04:09:16;;;;;;;;;;;4.20;74.20;;;;;;5046229;28;19913;-80
2022/03/26 04:11:42;;;;;;;;;;;4.20;74.80;;;;;;5024809;28;20376;-81
2022/03/26 04:14:07;;;;;;;;;;;4.20;75.30;;;;;;5031478;28;19964;-81
2022/03/26 04:16:33;;;;;;;;;;;4.10;76.80;;;;;;5031079;28;20392;-80
2022/03/26 04:18:59;;;;;;;;;;;4.10;76.90;;;;;;5015643;28;20343;-80
2022/03/26 04:21:24;;;;;;;;;;;4.00;76.70;;;;;;5046842;28;19920;-80
2022/03/26 04:23:50;;;;;;;;;;;3.90;76.00;;;;;;5043267;28;19912;-80
2022/03/26 04:26:15;;;;;;;;;;;3.90;76.10;;;;;;5043016;28;19917;-81
2022/03/26 04:28:41;;;;;;;;;;;3.90;77.10;;;;;;5049466;28;19912;-81
2022/03/26 04:31:08;;;;;;;;;;;3.80;78.20;;;;;;5041049;28;19913;-81
2022/03/26 04:33:33;;;;;;;;;;;3.80;79.40;;;;;;5049156;28;19921;-81
2022/03/26 04:35:59;;;;;;;;;;;3.80;79.80;;;;;;5046501;28;20363;-81
2022/03/26 04:38:24;;;;;;;;;;;3.70;80.20;;;;;;5020489;28;20458;-81
2022/03/26 04:40:50;;;;;;;;;;;3.70;81.30;;;;;;5027585;28;19923;-81
2022/03/26 04:43:16;;;;;;;;;;;3.70;80.60;;;;;;5021824;28;19968;-81
2022/03/26 04:45:42;;;;;;;;;;;3.60;81.10;;;;;;5017000;28;19924;-81
2022/03/26 04:48:07;;;;;;;;;;;3.60;82.00;;;;;;5031879;28;19925;-81
2022/03/26 04:50:33;;;;;;;;;;;3.60;82.80;;;;;;5043657;28;20390;-81
2022/03/26 04:52:59;;;;;;;;;;;3.60;84.10;;;;;;5030462;28;20012;-81
2022/03/26 04:55:24;;;;;;;;;;;3.50;85.00;;;;;;5044234;28;19924;-81
2022/03/26 04:57:51;;;;;;;;;;;3.50;85.00;;;;;;5023211;28;19924;-81
2022/03/26 05:00:17;;;;;;;;;;;3.50;84.80;;;;;;5050810;28;19969;-80
2022/03/26 05:02:43;;;;;;;;;;;3.60;84.60;;;;;;5044175;28;20264;-81
2022/03/26 05:05:09;;;;;;;;;;;3.60;84.40;;;;;;5047552;28;19924;-81
2022/03/26 05:07:47;;;;;;;;;;;3.60;83.90;;;;;;5033034;28;19913;-81
2022/03/26 05:10:13;;;;;;;;;;;3.60;84.10;;;;;;5045735;28;19920;-81
2022/03/26 05:12:38;;;;;;;;;;;3.60;83.90;;;;;;5043596;28;20296;-81
2022/03/26 05:15:04;;;;;;;;;;;3.60;83.00;;;;;;5031992;28;19927;-81
2022/03/26 05:17:30;;;;;;;;;;;3.60;83.60;;;;;;5049722;28;20003;-81
2022/03/26 05:19:55;;;;;;;;;;;3.70;83.80;;;;;;5018105;28;20471;-81
2022/03/26 05:22:21;;;;;;;;;;;3.70;84.10;;;;;;5030690;28;19924;-81
2022/03/26 05:24:46;;;;;;;;;;;3.70;84.00;;;;;;5025940;28;19917;-80
2022/03/26 05:27:12;;;;;;;;;;;3.80;83.30;;;;;;5030206;28;19940;-81
2022/03/26 05:29:38;;;;;;;;;;;3.90;82.20;;;;;;5023058;28;20242;-81
2022/03/26 05:32:04;;;;;;;;;;;3.90;81.30;;;;;;5034672;28;19917;-81
2022/03/26 05:34:29;;;;;;;;;;;4.00;80.70;;;;;;5020129;28;19927;-81
2022/03/26 05:36:55;;;;;;;;;;;4.10;81.20;;;;;;5024464;28;20273;-81
2022/03/26 05:39:20;;;;;;;;;;;4.20;83.30;;;;;;5043281;28;19925;-81
2022/03/26 05:41:46;;;;;;;;;;;4.20;81.80;;;;;;5021392;28;20286;-81
2022/03/26 05:44:12;;;;;;;;;;;4.20;81.60;;;;;;5019462;28;19960;-81
2022/03/26 05:46:37;;;;;;;;;;;4.30;82.10;;;;;;5028703;28;19955;-81
2022/03/26 05:49:03;;;;;;;;;;;4.40;80.50;;;;;;5047700;28;20012;-81
2022/03/26 05:51:29;;;;;;;;;;;4.50;80.70;;;;;;5038738;28;20292;-83
2022/03/26 05:53:54;;;;;;;;;;;4.60;79.80;;;;;;5020999;28;19925;-83
2022/03/26 05:56:20;;;;;;;;;;;4.70;81.10;;;;;;5022921;28;19917;-83
2022/03/26 05:58:50;;;;;;;;;;;4.80;80.20;;;;;;5041474;28;20015;-83
2022/03/26 06:01:16;;;;;;;;;;;4.90;80.90;;;;;;5040859;28;19913;-83
2022/03/26 06:03:42;;;;;;;;;;;4.90;81.20;;;;;;5048494;28;19916;-83
2022/03/26 06:06:14;;;;;;;;;;;4.90;80.10;;;;;;5037074;28;19917;-82
2022/03/26 06:08:46;;;;;;;;;;;5.00;80.50;;;;;;5030471;28;19920;-81
2022/03/26 06:11:12;;;;;;;;;;;5.00;78.70;;;;;;5039805;28;19927;-81
2022/03/26 06:13:38;;;;;;;;;;;5.20;80.30;;;;;;5025785;28;19925;-82
2022/03/26 06:16:04;;;;;;;;;;;5.20;80.20;;;;;;5023241;28;19964;-82
2022/03/26 06:18:30;;;;;;;;;;;5.30;80.20;;;;;;5033833;28;19926;-81
2022/03/26 06:20:56;;;;;;;;;;;5.30;77.80;;;;;;5026839;28;19917;-81
2022/03/26 06:23:22;;;;;;;;;;;5.40;79.30;;;;;;5039714;28;19917;-81
2022/03/26 06:25:48;;;;;;;;;;;5.50;80.10;;;;;;5041504;28;20337;-81
2022/03/26 06:28:19;;;;;;;;;;;5.60;78.40;;;;;;5033286;28;19921;-81
2022/03/26 06:30:48;;;;;;;;;;;5.70;80.00;;;;;;5019678;28;20004;-81
2022/03/26 06:33:15;;;;;;;;;;;5.90;79.50;;;;;;5022976;28;20335;-82
2022/03/26 06:35:44;;;;;;;;;;;6.00;78.50;;;;;;5038753;28;19914;-82
2022/03/26 06:38:10;;;;;;;;;;;6.10;78.10;;;;;;5037737;28;19940;-82
2022/03/26 06:40:37;;;;;;;;;;;6.20;77.60;;;;;;5040508;28;20162;-83
2022/03/26 06:43:03;;;;;;;;;;;6.30;76.20;;;;;;5048442;28;20282;-81
2022/03/26 06:45:28;;;;;;;;;;;6.40;78.40;;;;;;5041168;28;19917;-81
2022/03/26 06:47:54;;;;;;;;;;;6.50;75.40;;;;;;5042192;23;19928;31
2022/03/26 06:50:20;;;;;;;;;;;6.60;75.50;;;;;;5020708;28;19925;-81
2022/03/26 06:52:45;;;;;;;;;;;6.70;75.40;;;;;;5038169;28;20386;-82
2022/03/26 06:55:11;;;;;;;;;;;6.80;76.90;;;;;;5002231;28;19988;-81
2022/03/26 06:57:37;;;;;;;;;;;6.90;71.90;;;;;;5009155;28;19920;-83
2022/03/26 07:00:04;;;;;;;;;;;6.90;73.90;;;;;;4982048;28;19981;-82
2022/03/26 07:02:30;;;;;;;;;;;7.00;73.90;;;;;;4999017;28;19924;-83
2022/03/26 07:04:55;;;;;;;;;;;7.10;75.40;;;;;;5008503;28;19918;-82
2022/03/26 07:07:21;;;;;;;;;;;7.20;73.50;;;;;;5005937;28;19918;-83
2022/03/26 07:09:47;;;;;;;;;;;7.20;74.50;;;;;;5013551;28;19944;-83
2022/03/26 07:12:12;;;;;;;;;;;7.30;71.70;;;;;;4998486;28;19923;-82
2022/03/26 07:14:38;;;;;;;;;;;7.40;72.00;;;;;;5014559;28;20000;-81
2022/03/26 07:17:04;;;;;;;;;;;7.50;72.80;;;;;;5038982;28;20332;-80
2022/03/26 07:19:29;;;;;;;;;;;7.60;75.30;;;;;;5037684;28;19918;-79
2022/03/26 07:21:55;;;;;;;;;;;7.70;73.00;;;;;;4999961;28;19917;-81
2022/03/26 07:24:20;;;;;;;;;;;7.80;72.00;;;;;;5012632;28;19940;-80
2022/03/26 07:26:46;;;;;;;;;;;7.90;72.10;;;;;;4997798;28;19925;-81
2022/03/26 07:29:12;;;;;;;;;;;8.00;72.30;;;;;;5021842;28;20269;-81
2022/03/26 07:31:37;;;;;;;;;;;8.00;71.40;;;;;;4992351;28;20372;-81
2022/03/26 07:34:03;;;;;;;;;;;8.10;69.90;;;;;;5018957;28;19918;-80
2022/03/26 07:36:28;;;;;;;;;;;8.20;71.70;;;;;;4987711;28;19925;-81
2022/03/26 07:38:54;;;;;;;;;;;8.30;70.10;;;;;;4998402;28;19921;-79
2022/03/26 07:41:21;;;;;;;;;;;8.30;66.70;;;;;;4999092;28;19924;-81
2022/03/26 07:43:47;;;;;;;;;;;8.40;67.20;;;;;;5019925;28;19918;-79
2022/03/26 07:46:14;;;;;;;;;;;8.40;66.80;;;;;;5000308;28;20005;-79
2022/03/26 07:48:39;;;;;;;;;;;8.60;67.90;;;;;;4993927;28;19976;-80
2022/03/26 07:51:05;;;;;;;;;;;8.70;67.50;;;;;;4995961;28;19918;-80
2022/03/26 07:53:30;;;;;;;;;;;8.70;66.30;;;;;;5002089;28;20380;-79
2022/03/26 07:55:56;;;;;;;;;;;8.90;63.20;;;;;;5005569;28;19917;-80
2022/03/26 07:58:22;;;;;;;;;;;8.90;63.40;;;;;;5009560;28;20617;-79
2022/03/26 08:00:49;;;;;;;;;;;9.00;62.30;;;;;;5012051;28;19937;-80
2022/03/26 08:03:14;;;;;;;;;;;9.10;63.50;;;;;;5007429;28;19928;-80
2022/03/26 08:05:40;;;;;;;;;;;9.20;65.00;;;;;;5021394;28;20023;-80
2022/03/26 08:08:06;;;;;;;;;;;9.30;62.50;;;;;;5013622;28;19957;-80
2022/03/26 08:10:32;;;;;;;;;;;9.30;62.30;;;;;;5022525;28;20450;-79
2022/03/26 08:12:57;;;;;;;;;;;9.40;60.90;;;;;;5000220;28;19922;-80
2022/03/26 08:15:23;;;;;;;;;;;9.50;60.50;;;;;;5022007;28;19952;-79
2022/03/26 08:17:49;;;;;;;;;;;9.60;60.40;;;;;;4993760;28;19917;-80
2022/03/26 08:20:14;;;;;;;;;;;9.70;58.70;;;;;;5037942;28;20477;-80
2022/03/26 08:22:43;;;;;;;;;;;9.80;59.60;;;;;;5012463;28;19921;-80
2022/03/26 08:26:19;;;;;;;;;;;9.90;58.90;;;;;;5010792;28;19921;-80
2022/03/26 08:27:57;;;;;;;;;;;10.00;58.80;;;;;;5020051;28;19985;-77
2022/03/26 08:30:22;;;;;;;;;;;10.10;58.90;;;;;;5019273;28;19965;-80
2022/03/26 08:32:48;;;;;;;;;;;10.20;58.60;;;;;;5020341;28;19932;-82
2022/03/26 08:35:14;;;;;;;;;;;10.30;59.30;;;;;;5035176;28;19922;-81
2022/03/26 08:37:40;;;;;;;;;;;10.40;56.50;;;;;;5032438;28;19963;-81
2022/03/26 08:40:06;;;;;;;;;;;10.40;57.40;;;;;;5032420;28;19917;-81
2022/03/26 08:42:31;;;;;;;;;;;10.50;56.90;;;;;;5015469;28;19921;-81
2022/03/26 08:44:57;;;;;;;;;;;10.60;58.60;;;;;;5032464;28;19916;-81
2022/03/26 08:47:23;;;;;;;;;;;10.70;57.20;;;;;;5015419;28;19918;-81
2022/03/26 08:49:48;;;;;;;;;;;10.80;57.90;;;;;;5015845;28;19921;-80
2022/03/26 08:52:14;;;;;;;;;;;10.80;57.80;;;;;;5016543;28;20016;-81
2022/03/26 08:54:44;;;;;;;;;;;11.00;56.30;;;;;;5016389;28;19921;-81
2022/03/26 08:57:10;;;;;;;;;;;11.00;55.20;;;;;;5015361;28;19922;-79
2022/03/26 08:59:36;;;;;;;;;;;11.10;55.40;;;;;;5020506;28;19924;-80
2022/03/26 09:02:02;;;;;;;;;;;11.20;57.00;;;;;;5021267;28;19953;-80
2022/03/26 09:04:28;;;;;;;;;;;11.20;55.70;;;;;;5037880;28;19927;-80
2022/03/26 09:06:53;;;;;;;;;;;11.30;54.70;;;;;;5022363;28;19924;-79
2022/03/26 09:09:19;;;;;;;;;;;11.30;53.70;;;;;;5023996;28;19932;-80
2022/03/26 09:11:45;;;;;;;;;;;11.40;55.00;;;;;;5012730;28;19954;-78
2022/03/26 09:14:12;;;;;;;;;;;11.50;56.70;;;;;;5011249;28;20307;-78
2022/03/26 09:16:38;;;;;;;;;;;11.60;57.00;;;;;;5027000;28;19945;-79
2022/03/26 09:19:03;;;;;;;;;;;11.70;56.40;;;;;;5027442;28;19917;-79
2022/03/26 09:21:29;;;;;;;;;;;11.80;55.50;;;;;;5011225;28;20368;-78
2022/03/26 09:23:55;;;;;;;;;;;11.90;56.10;;;;;;5011392;28;19963;-79
2022/03/26 09:26:21;;;;;;;;;;;11.90;55.40;;;;;;5011160;28;20083;-77
2022/03/26 09:28:46;;;;;;;;;;;12.00;54.50;;;;;;5011047;28;20427;-78
2022/03/26 09:31:12;;;;;;;;;;;12.00;55.90;;;;;;5010266;28;19940;-78
2022/03/26 09:33:37;;;;;;;;;;;12.00;55.40;;;;;;5011044;28;19964;-79
2022/03/26 09:36:03;;;;;;;;;;;12.10;56.00;;;;;;5011033;28;19964;-79
2022/03/26 09:38:29;;;;;;;;;;;12.20;55.20;;;;;;5012041;28;19941;-79
2022/03/26 09:40:55;;;;;;;;;;;12.30;55.10;;;;;;5011006;28;20099;-79
2022/03/26 09:43:22;;;;;;;;;;;12.40;55.80;;;;;;5027626;28;19910;-77
2022/03/26 09:45:47;;;;;;;;;;;12.40;54.30;;;;;;5011278;28;19957;-79
2022/03/26 09:48:13;;;;;;;;;;;12.50;55.70;;;;;;5010568;28;19996;-78
2022/03/26 09:50:41;;;;;;;;;;;12.60;54.20;;;;;;5011028;28;19925;-79
2022/03/26 09:53:09;;;;;;;;;;;12.60;54.30;;;;;;5026399;28;19933;-79
2022/03/26 09:55:35;;;;;;;;;;;12.70;53.70;;;;;;5009820;28;19992;-79
2022/03/26 09:58:00;;;;;;;;;;;12.80;55.20;;;;;;5010557;28;20068;-79
2022/03/26 10:00:26;;;;;;;;;;;12.90;52.60;;;;;;5010754;28;20398;-79
2022/03/26 10:02:51;;;;;;;;;;;12.90;52.80;;;;;;5010356;28;19924;-79
2022/03/26 10:05:17;;;;;;;;;;;13.00;53.40;;;;;;5010460;28;19913;-79
2022/03/26 10:07:44;;;;;;;;;;;13.00;52.40;;;;;;5026963;28;20297;-77
2022/03/26 10:10:20;;;;;;;;;;;13.00;53.00;;;;;;5026850;28;19910;-78
2022/03/26 10:12:48;;;;;;;;;;;13.10;53.60;;;;;;5026309;28;19918;-78
2022/03/26 10:15:14;;;;;;;;;;;13.20;53.90;;;;;;5027368;28;19910;-80
2022/03/26 10:17:39;;;;;;;;;;;13.20;51.60;;;;;;5010507;28;20416;-76
2022/03/26 10:20:10;;;;;;;;;;;13.20;54.10;;;;;;5026579;28;19967;-79
2022/03/26 10:22:37;;;;;;;;;;;13.40;53.70;;;;;;5009700;28;19917;-77
2022/03/26 10:25:03;;;;;;;;;;;13.40;51.70;;;;;;5026518;28;19921;-78
2022/03/26 10:27:31;;;;;;;;;;;13.50;52.30;;;;;;5010163;28;19909;-79
2022/03/26 10:29:59;;;;;;;;;;;13.50;51.30;;;;;;5009874;28;19917;-78
2022/03/26 10:32:41;;;;;;;;;;;13.60;52.20;;;;;;5026685;28;20309;-79
2022/03/26 10:35:13;;;;;;;;;;;13.70;53.10;;;;;;5010215;28;19918;-78
2022/03/26 10:37:43;;;;;;;;;;;13.80;52.70;;;;;;5011656;28;19917;-82
2022/03/26 10:40:16;;;;;;;;;;;13.80;52.30;;;;;;5028501;28;19956;-81
2022/03/26 10:42:41;;;;;;;;;;;14.00;50.50;;;;;;5011923;28;20283;-81
2022/03/26 10:45:13;;;;;;;;;;;14.00;52.80;;;;;;5028543;28;19917;-81
2022/03/26 10:47:38;;;;;;;;;;;14.20;51.90;;;;;;5029505;28;19936;-80
2022/03/26 10:50:05;;;;;;;;;;;14.30;51.10;;;;;;5013826;28;20404;-81
2022/03/26 10:52:30;;;;;;;;;;;14.30;50.80;;;;;;5012727;28;19909;-81
2022/03/26 10:54:56;;;;;;;;;;;14.40;50.30;;;;;;5009813;28;20300;-80
2022/03/26 10:57:24;;;;;;;;;;;14.40;49.80;;;;;;5010311;28;20375;-80
2022/03/26 10:59:51;;;;;;;;;;;14.50;50.90;;;;;;5010312;28;20659;-80
2022/03/26 11:02:16;;;;;;;;;;;14.60;49.70;;;;;;5026689;28;19996;-80
2022/03/26 11:04:42;;;;;;;;;;;14.70;49.60;;;;;;5010373;28;20033;-80
2022/03/26 11:07:08;;;;;;;;;;;14.70;47.50;;;;;;5010212;28;19921;-81
2022/03/26 11:09:33;;;;;;;;;;;14.70;46.90;;;;;;5009895;28;19921;-80
2022/03/26 11:11:59;;;;;;;;;;;14.70;46.50;;;;;;5010218;28;20368;-80
2022/03/26 11:14:38;;;;;;;;;;;14.80;48.50;;;;;;5010170;28;19964;-80
2022/03/26 11:17:16;;;;;;;;;;;14.90;51.10;;;;;;5026441;28;19909;-81
2022/03/26 11:19:57;;;;;;;;;;;15.00;50.00;;;;;;5009989;28;20261;-81
2022/03/26 11:22:41;;;;;;;;;;;15.10;49.80;;;;;;5010198;28;19941;-80
2022/03/26 11:25:32;;;;;;;;;;;15.10;48.20;;;;;;5009985;28;20287;-80
2022/03/26 11:28:16;;;;;;;;;;;15.20;46.90;;;;;;5009827;28;19913;-80
2022/03/26 11:30:54;;;;;;;;;;;15.30;49.90;;;;;;5010140;28;19917;-81
2022/03/26 11:33:20;;;;;;;;;;;15.30;47.90;;;;;;5009911;28;19914;-80
2022/03/26 11:35:54;;;;;;;;;;;15.40;45.90;;;;;;5026410;28;20292;-80
2022/03/26 11:38:20;;;;;;;;;;;15.50;48.60;;;;;;5010087;28;20323;-80
2022/03/26 11:40:46;;;;;;;;;;;15.50;46.80;;;;;;5026619;28;19910;-80
2022/03/26 11:43:16;;;;;;;;;;;15.50;46.70;;;;;;5010208;28;20292;-80
2022/03/26 11:51:28;;;;;;;;;;;15.60;44.20;;;;;;5011133;28;20000;-81
2022/03/26 11:53:58;;;;;;;;;;;15.70;44.20;;;;;;5011823;28;19926;-80
2022/03/26 11:56:25;;;;;;;;;;;15.70;43.00;;;;;;5014297;28;20395;-80
2022/03/26 11:59:06;;;;;;;;;;;15.80;45.30;;;;;;5013858;28;19913;-80
2022/03/26 12:01:35;;;;;;;;;;;15.80;44.00;;;;;;5013906;28;20020;-80
2022/03/26 12:04:07;;;;;;;;;;;15.80;44.00;;;;;;5013963;28;19910;-81
2022/03/26 12:06:40;;;;;;;;;;;15.90;43.00;;;;;;5030342;28;19913;-81
2022/03/26 12:09:05;;;;;;;;;;;15.90;41.70;;;;;;5030347;28;19921;-80
2022/03/26 12:11:32;;;;;;;;;;;16.00;42.00;;;;;;5014224;28;20017;-80
2022/03/26 12:14:05;;;;;;;;;;;16.00;42.20;;;;;;5013582;28;19987;-80
2022/03/26 12:16:49;;;;;;;;;;;16.00;42.70;;;;;;5030401;28;20085;-80
2022/03/26 12:19:34;;;;;;;;;;;16.10;40.30;;;;;;5013453;28;20000;-81
2022/03/26 12:22:15;;;;;;;;;;;16.10;41.20;;;;;;5013860;28;19910;-81
2022/03/26 12:24:41;;;;;;;;;;;16.20;41.90;;;;;;5015085;28;19913;-80
2022/03/26 12:27:06;;;;;;;;;;;16.20;40.60;;;;;;5014164;28;19917;-81
2022/03/26 12:29:37;;;;;;;;;;;16.20;39.70;;;;;;5014134;28;19985;-81
2022/03/26 12:32:03;;;;;;;;;;;16.20;42.20;;;;;;5013947;28;20421;-80
2022/03/26 12:34:29;;;;;;;;;;;16.20;40.70;;;;;;5013250;28;19921;-80
2022/03/26 12:37:02;;;;;;;;;;;16.20;41.00;;;;;;5013855;28;19922;-80
2022/03/26 12:39:27;;;;;;;;;;;16.20;41.40;;;;;;5030000;28;20379;-80
2022/03/26 12:41:54;;;;;;;;;;;16.20;39.10;;;;;;5013499;28;19921;-81
2022/03/26 12:44:21;;;;;;;;;;;16.10;40.40;;;;;;5033083;28;19914;-79
2022/03/26 12:46:48;;;;;;;;;;;16.10;40.00;;;;;;5013366;28;19956;-80
2022/03/26 12:49:20;;;;;;;;;;;16.20;42.20;;;;;;5069029;22;19929;-81
2022/03/26 12:51:53;;;;;;;;;;;16.20;40.50;;;;;;5054374;28;19909;-81
2022/03/26 12:54:18;;;;;;;;;;;16.20;42.30;;;;;;5036058;28;19925;-81
2022/03/26 12:56:44;;;;;;;;;;;16.30;41.30;;;;;;5053663;28;19932;-81
2022/03/26 12:59:13;;;;;;;;;;;16.30;39.20;;;;;;5036401;28;19913;-81
2022/03/26 13:01:39;;;;;;;;;;;16.40;42.30;;;;;;5054129;28;20371;-82
2022/03/26 13:04:04;;;;;;;;;;;16.40;39.20;;;;;;5036556;28;19917;-81
2022/03/26 13:06:30;;;;;;;;;;;16.40;38.60;;;;;;5035608;28;19971;-81
2022/03/26 13:08:57;;;;;;;;;;;16.40;37.70;;;;;;5036591;28;19912;-81
2022/03/26 13:11:24;;;;;;;;;;;16.40;39.20;;;;;;5052573;28;19999;-81
2022/03/26 13:13:50;;;;;;;;;;;16.40;39.70;;;;;;5053127;28;19913;-81
2022/03/26 13:16:18;;;;;;;;;;;16.40;40.60;;;;;;5052846;28;20389;-82
2022/03/26 13:18:56;;;;;;;;;;;16.40;39.00;;;;;;5036279;28;19920;-81
2022/03/26 13:21:22;;;;;;;;;;;16.30;37.20;;;;;;5052877;28;20422;-82
2022/03/26 13:23:52;;;;;;;;;;;16.30;39.90;;;;;;5053043;28;19951;-81
2022/03/26 13:26:17;;;;;;;;;;;16.30;38.50;;;;;;5052879;28;19909;-82
2022/03/26 13:28:43;;;;;;;;;;;16.40;39.80;;;;;;5036537;28;19920;-84
2022/03/26 13:31:16;;;;;;;;;;;16.30;37.20;;;;;;5036292;28;20241;-81
2022/03/26 13:33:43;;;;;;;;;;;16.30;35.90;;;;;;5052683;28;20294;-82
2022/03/26 13:36:08;;;;;;;;;;;16.20;36.60;;;;;;5036188;28;19959;-81
2022/03/26 13:38:41;;;;;;;;;;;16.30;38.30;;;;;;5035341;28;19970;-81
2022/03/26 13:41:20;;;;;;;;;;;16.20;36.20;;;;;;5052427;28;20023;-81
2022/03/26 13:43:46;;;;;;;;;;;16.20;37.20;;;;;;5035704;28;19932;-81
2022/03/26 13:46:12;;;;;;;;;;;16.20;36.60;;;;;;5052821;28;19930;-81
2022/03/26 13:48:51;;;;;;;;;;;16.20;36.60;;;;;;5052378;28;20012;-82
2022/03/26 13:51:17;;;;;;;;;;;16.20;36.70;;;;;;5036136;28;19920;-82
2022/03/26 13:53:43;;;;;;;;;;;16.20;37.70;;;;;;5051700;28;20004;-82
2022/03/26 13:56:10;;;;;;;;;;;16.30;36.70;;;;;;5052043;28;19952;-82
2022/03/26 13:58:36;;;;;;;;;;;16.30;37.20;;;;;;5053007;28;19963;-81
2022/03/26 14:01:08;;;;;;;;;;;16.20;36.00;;;;;;5034938;28;19917;-81
2022/03/26 14:03:40;;;;;;;;;;;16.20;36.90;;;;;;5050486;28;19940;-81
2022/03/26 14:06:06;;;;;;;;;;;16.20;38.40;;;;;;5034012;28;20396;-81
2022/03/26 14:08:32;;;;;;;;;;;16.20;36.70;;;;;;5049858;28;19909;-82
2022/03/26 14:10:58;;;;;;;;;;;16.20;39.70;;;;;;5050466;28;19962;-81
2022/03/26 14:13:23;;;;;;;;;;;16.30;38.70;;;;;;5050208;28;19919;-81
2022/03/26 14:15:49;;;;;;;;;;;16.30;39.20;;;;;;5033451;28;20403;-81
2022/03/26 14:18:15;;;;;;;;;;;16.30;36.80;;;;;;5033119;28;19913;-81
2022/03/26 14:20:41;;;;;;;;;;;16.30;37.70;;;;;;5035586;28;19936;-80
2022/03/26 14:23:07;;;;;;;;;;;16.30;39.10;;;;;;5053504;28;19909;-80
2022/03/26 14:25:34;;;;;;;;;;;16.30;37.00;;;;;;5034467;28;19913;-81
2022/03/26 14:28:01;;;;;;;;;;;16.20;34.70;;;;;;5025449;28;19952;-81